sensor_id;sensor_type;location;lat;lon;timestamp;temperature;humidity
35463;DHT22;21578;47.892;9.970;2022-11-25T00:00:14;2.80;96.60
35463;DHT22;21578;47.892;9.970;2022-11-25T00:05:02;2.90;96.60
35463;DHT22;21578;47.892;9.970;2022-11-25T00:09:49;2.90;96.60
35463;DHT22;21578;47.892;9.970;2022-11-25T00:14:36;2.90;96.60
35463;DHT22;21578;47.892;9.970;2022-11-25T00:19:25;3.00;96.60
35463;DHT22;21578;47.892;9.970;2022-11-25T00:24:14;3.00;96.60
35463;DHT22;21578;47.892;9.970;2022-11-25T00:29:04;3.00;96.60
35463;DHT22;21578;47.892;9.970;2022-11-25T00:33:52;3.00;96.60
35463;DHT22;21578;47.892;9.970;2022-11-25T00:38:40;2.90;96.60
35463;DHT22;21578;47.892;9.970;2022-11-25T00:43:27;2.90;96.60
35463;DHT22;21578;47.892;9.970;2022-11-25T00:48:32;2.80;96.60
35463;DHT22;21578;47.892;9.970;2022-11-25T00:53:19;2.90;96.60
35463;DHT22;21578;47.892;9.970;2022-11-25T00:58:08;2.90;96.60
35463;DHT22;21578;47.892;9.970;2022-11-25T01:02:55;2.90;96.60
35463;DHT22;21578;47.892;9.970;2022-11-25T01:07:43;2.90;96.60
35463;DHT22;21578;47.892;9.970;2022-11-25T01:12:31;2.90;96.60
35463;DHT22;21578;47.892;9.970;2022-11-25T01:17:19;2.80;96.60
35463;DHT22;21578;47.892;9.970;2022-11-25T01:22:07;2.90;96.60
35463;DHT22;21578;47.892;9.970;2022-11-25T01:26:54;2.80;96.60
35463;DHT22;21578;47.892;9.970;2022-11-25T01:31:42;2.80;96.60
35463;DHT22;21578;47.892;9.970;2022-11-25T01:36:31;2.80;96.60
35463;DHT22;21578;47.892;9.970;2022-11-25T01:41:20;2.80;96.60
35463;DHT22;21578;47.892;9.970;2022-11-25T01:46:11;2.60;96.60
35463;DHT22;21578;47.892;9.970;2022-11-25T01:51:00;2.50;96.60
35463;DHT22;21578;47.892;9.970;2022-11-25T01:55:52;2.40;96.60
35463;DHT22;21578;47.892;9.970;2022-11-25T02:00:41;2.40;96.60
35463;DHT22;21578;47.892;9.970;2022-11-25T02:05:39;2.40;96.60
35463;DHT22;21578;47.892;9.970;2022-11-25T02:10:32;2.50;96.60
35463;DHT22;21578;47.892;9.970;2022-11-25T02:15:22;2.70;96.60
35463;DHT22;21578;47.892;9.970;2022-11-25T02:20:11;2.60;96.60
35463;DHT22;21578;47.892;9.970;2022-11-25T02:25:09;2.60;96.60
35463;DHT22;21578;47.892;9.970;2022-11-25T02:29:56;2.60;96.60
35463;DHT22;21578;47.892;9.970;2022-11-25T02:34:47;2.60;96.60
35463;DHT22;21578;47.892;9.970;2022-11-25T02:39:34;2.60;96.60
35463;DHT22;21578;47.892;9.970;2022-11-25T02:44:23;2.60;96.60
35463;DHT22;21578;47.892;9.970;2022-11-25T02:49:11;2.60;96.60
35463;DHT22;21578;47.892;9.970;2022-11-25T02:53:58;2.50;96.60
35463;DHT22;21578;47.892;9.970;2022-11-25T02:58:46;2.60;96.60
35463;DHT22;21578;47.892;9.970;2022-11-25T03:03:35;2.70;96.60
35463;DHT22;21578;47.892;9.970;2022-11-25T03:08:22;2.70;96.60
35463;DHT22;21578;47.892;9.970;2022-11-25T03:13:09;2.70;96.60
35463;DHT22;21578;47.892;9.970;2022-11-25T03:17:57;2.70;96.60
35463;DHT22;21578;47.892;9.970;2022-11-25T03:22:46;2.80;96.60
35463;DHT22;21578;47.892;9.970;2022-11-25T03:27:34;2.80;96.60
35463;DHT22;21578;47.892;9.970;2022-11-25T03:32:21;2.90;96.60
35463;DHT22;21578;47.892;9.970;2022-11-25T03:37:09;2.90;96.60
35463;DHT22;21578;47.892;9.970;2022-11-25T03:41:57;2.90;96.60
35463;DHT22;21578;47.892;9.970;2022-11-25T03:46:45;2.90;96.60
35463;DHT22;21578;47.892;9.970;2022-11-25T03:51:33;2.90;96.60
35463;DHT22;21578;47.892;9.970;2022-11-25T03:56:20;2.90;96.60
35463;DHT22;21578;47.892;9.970;2022-11-25T04:01:09;2.90;96.60
35463;DHT22;21578;47.892;9.970;2022-11-25T04:05:56;2.90;96.60
35463;DHT22;21578;47.892;9.970;2022-11-25T04:10:44;2.90;96.60
35463;DHT22;21578;47.892;9.970;2022-11-25T04:15:31;2.90;96.60
35463;DHT22;21578;47.892;9.970;2022-11-25T04:20:21;2.90;96.60
35463;DHT22;21578;47.892;9.970;2022-11-25T04:25:08;2.90;96.60
35463;DHT22;21578;47.892;9.970;2022-11-25T04:29:56;2.90;96.60
35463;DHT22;21578;47.892;9.970;2022-11-25T04:34:43;2.90;96.60
35463;DHT22;21578;47.892;9.970;2022-11-25T04:39:32;2.90;96.60
35463;DHT22;21578;47.892;9.970;2022-11-25T04:44:19;2.90;96.60
35463;DHT22;21578;47.892;9.970;2022-11-25T04:49:06;2.90;96.60
35463;DHT22;21578;47.892;9.970;2022-11-25T04:53:54;2.90;96.60
35463;DHT22;21578;47.892;9.970;2022-11-25T04:58:42;2.90;96.60
35463;DHT22;21578;47.892;9.970;2022-11-25T05:03:48;2.90;96.60
35463;DHT22;21578;47.892;9.970;2022-11-25T05:08:36;2.90;96.60
35463;DHT22;21578;47.892;9.970;2022-11-25T05:13:23;2.90;96.60
35463;DHT22;21578;47.892;9.970;2022-11-25T05:18:12;3.10;96.60
35463;DHT22;21578;47.892;9.970;2022-11-25T05:23:00;3.10;96.60
35463;DHT22;21578;47.892;9.970;2022-11-25T05:27:49;3.10;96.60
35463;DHT22;21578;47.892;9.970;2022-11-25T05:32:39;3.00;96.60
35463;DHT22;21578;47.892;9.970;2022-11-25T05:37:28;3.00;96.60
35463;DHT22;21578;47.892;9.970;2022-11-25T05:42:15;3.00;96.60
35463;DHT22;21578;47.892;9.970;2022-11-25T05:47:03;3.00;96.60
35463;DHT22;21578;47.892;9.970;2022-11-25T05:51:50;3.00;96.60
35463;DHT22;21578;47.892;9.970;2022-11-25T05:56:39;3.10;96.60
35463;DHT22;21578;47.892;9.970;2022-11-25T06:01:27;3.10;96.60
35463;DHT22;21578;47.892;9.970;2022-11-25T06:06:14;3.10;96.60
35463;DHT22;21578;47.892;9.970;2022-11-25T06:11:04;3.10;96.60
35463;DHT22;21578;47.892;9.970;2022-11-25T06:15:52;3.10;96.60
35463;DHT22;21578;47.892;9.970;2022-11-25T06:20:39;3.00;96.60
35463;DHT22;21578;47.892;9.970;2022-11-25T06:25:27;3.00;96.60
35463;DHT22;21578;47.892;9.970;2022-11-25T06:30:15;3.00;96.60
35463;DHT22;21578;47.892;9.970;2022-11-25T06:35:04;3.00;96.60
35463;DHT22;21578;47.892;9.970;2022-11-25T06:39:51;3.10;96.60
35463;DHT22;21578;47.892;9.970;2022-11-25T06:44:39;3.10;96.60
35463;DHT22;21578;47.892;9.970;2022-11-25T06:49:26;3.20;96.60
35463;DHT22;21578;47.892;9.970;2022-11-25T06:54:15;3.30;96.60
35463;DHT22;21578;47.892;9.970;2022-11-25T06:59:02;3.30;96.60
35463;DHT22;21578;47.892;9.970;2022-11-25T07:03:51;3.30;96.60
35463;DHT22;21578;47.892;9.970;2022-11-25T07:08:38;3.40;96.60
35463;DHT22;21578;47.892;9.970;2022-11-25T07:13:27;3.40;96.60
35463;DHT22;21578;47.892;9.970;2022-11-25T07:18:14;3.40;96.60
35463;DHT22;21578;47.892;9.970;2022-11-25T07:23:01;3.30;96.60
35463;DHT22;21578;47.892;9.970;2022-11-25T07:27:48;3.40;96.60
35463;DHT22;21578;47.892;9.970;2022-11-25T07:32:37;3.30;96.60
35463;DHT22;21578;47.892;9.970;2022-11-25T07:37:24;3.30;96.60
35463;DHT22;21578;47.892;9.970;2022-11-25T07:42:12;3.20;96.60
35463;DHT22;21578;47.892;9.970;2022-11-25T07:46:59;3.20;96.60
35463;DHT22;21578;47.892;9.970;2022-11-25T07:51:50;3.10;96.60
35463;DHT22;21578;47.892;9.970;2022-11-25T07:56:39;3.20;96.60
35463;DHT22;21578;47.892;9.970;2022-11-25T08:01:27;3.20;96.60
35463;DHT22;21578;47.892;9.970;2022-11-25T08:06:16;3.30;96.60
35463;DHT22;21578;47.892;9.970;2022-11-25T08:11:06;3.40;96.60
35463;DHT22;21578;47.892;9.970;2022-11-25T08:15:54;3.60;96.60
35463;DHT22;21578;47.892;9.970;2022-11-25T08:20:44;3.60;96.60
35463;DHT22;21578;47.892;9.970;2022-11-25T08:25:31;3.70;96.60
35463;DHT22;21578;47.892;9.970;2022-11-25T08:30:20;3.80;96.60
35463;DHT22;21578;47.892;9.970;2022-11-25T08:35:11;3.90;96.60
35463;DHT22;21578;47.892;9.970;2022-11-25T08:39:58;4.10;96.60
35463;DHT22;21578;47.892;9.970;2022-11-25T08:44:50;4.30;96.60
35463;DHT22;21578;47.892;9.970;2022-11-25T08:49:39;4.50;96.60
35463;DHT22;21578;47.892;9.970;2022-11-25T08:54:26;4.70;96.60
35463;DHT22;21578;47.892;9.970;2022-11-25T08:59:13;4.80;96.60
35463;DHT22;21578;47.892;9.970;2022-11-25T09:04:00;4.90;96.60
35463;DHT22;21578;47.892;9.970;2022-11-25T09:08:49;5.00;96.60
35463;DHT22;21578;47.892;9.970;2022-11-25T09:13:36;5.00;96.60
35463;DHT22;21578;47.892;9.970;2022-11-25T09:18:23;5.00;96.60
35463;DHT22;21578;47.892;9.970;2022-11-25T09:23:11;5.00;96.60
35463;DHT22;21578;47.892;9.970;2022-11-25T09:27:59;5.20;96.20
35463;DHT22;21578;47.892;9.970;2022-11-25T09:32:48;5.30;96.30
35463;DHT22;21578;47.892;9.970;2022-11-25T09:37:36;5.40;96.20
35463;DHT22;21578;47.892;9.970;2022-11-25T09:42:33;5.50;96.60
35463;DHT22;21578;47.892;9.970;2022-11-25T09:47:49;5.60;96.00
35463;DHT22;21578;47.892;9.970;2022-11-25T09:52:47;5.80;96.20
35463;DHT22;21578;47.892;9.970;2022-11-25T09:57:55;5.90;96.30
35463;DHT22;21578;47.892;9.970;2022-11-25T10:02:54;6.00;96.30
35463;DHT22;21578;47.892;9.970;2022-11-25T10:07:47;6.20;96.50
35463;DHT22;21578;47.892;9.970;2022-11-25T10:12:38;6.50;96.50
35463;DHT22;21578;47.892;9.970;2022-11-25T10:17:32;6.60;96.60
35463;DHT22;21578;47.892;9.970;2022-11-25T10:22:25;6.70;96.60
35463;DHT22;21578;47.892;9.970;2022-11-25T10:27:18;6.90;96.50
35463;DHT22;21578;47.892;9.970;2022-11-25T10:32:19;7.00;96.20
35463;DHT22;21578;47.892;9.970;2022-11-25T10:37:14;7.10;95.90
35463;DHT22;21578;47.892;9.970;2022-11-25T10:42:09;7.10;96.60
35463;DHT22;21578;47.892;9.970;2022-11-25T10:47:11;7.30;96.40
35463;DHT22;21578;47.892;9.970;2022-11-25T10:52:05;7.40;95.90
35463;DHT22;21578;47.892;9.970;2022-11-25T10:56:55;7.50;95.20
35463;DHT22;21578;47.892;9.970;2022-11-25T11:01:44;7.50;95.40
35463;DHT22;21578;47.892;9.970;2022-11-25T11:06:35;7.50;95.30
35463;DHT22;21578;47.892;9.970;2022-11-25T11:11:23;7.60;95.50
35463;DHT22;21578;47.892;9.970;2022-11-25T11:16:27;7.50;95.50
35463;DHT22;21578;47.892;9.970;2022-11-25T11:21:24;7.40;95.70
35463;DHT22;21578;47.892;9.970;2022-11-25T11:26:22;7.30;95.30
35463;DHT22;21578;47.892;9.970;2022-11-25T11:31:17;7.30;95.70
35463;DHT22;21578;47.892;9.970;2022-11-25T11:36:14;7.20;95.70
35463;DHT22;21578;47.892;9.970;2022-11-25T11:41:14;7.30;95.20
35463;DHT22;21578;47.892;9.970;2022-11-25T11:46:16;7.40;95.20
35463;DHT22;21578;47.892;9.970;2022-11-25T11:51:18;7.30;94.70
35463;DHT22;21578;47.892;9.970;2022-11-25T11:56:10;7.30;95.90
35463;DHT22;21578;47.892;9.970;2022-11-25T12:01:07;7.30;96.60
35463;DHT22;21578;47.892;9.970;2022-11-25T12:06:03;7.40;96.40
35463;DHT22;21578;47.892;9.970;2022-11-25T12:10:55;7.60;96.30
35463;DHT22;21578;47.892;9.970;2022-11-25T12:15:50;7.60;96.30
35463;DHT22;21578;47.892;9.970;2022-11-25T12:20:44;7.70;96.00
35463;DHT22;21578;47.892;9.970;2022-11-25T12:25:36;7.70;96.40
35463;DHT22;21578;47.892;9.970;2022-11-25T12:30:29;7.70;96.60
35463;DHT22;21578;47.892;9.970;2022-11-25T12:35:31;7.70;96.60
35463;DHT22;21578;47.892;9.970;2022-11-25T12:40:28;7.70;96.60
35463;DHT22;21578;47.892;9.970;2022-11-25T12:45:19;7.70;96.60
35463;DHT22;21578;47.892;9.970;2022-11-25T12:50:13;7.80;96.60
35463;DHT22;21578;47.892;9.970;2022-11-25T12:55:11;7.90;96.60
35463;DHT22;21578;47.892;9.970;2022-11-25T13:00:08;7.90;96.60
35463;DHT22;21578;47.892;9.970;2022-11-25T13:05:22;7.80;96.60
35463;DHT22;21578;47.892;9.970;2022-11-25T13:10:33;7.90;96.60
35463;DHT22;21578;47.892;9.970;2022-11-25T13:15:28;7.90;96.60
35463;DHT22;21578;47.892;9.970;2022-11-25T13:20:33;7.80;96.60
35463;DHT22;21578;47.892;9.970;2022-11-25T13:25:25;7.70;96.60
35463;DHT22;21578;47.892;9.970;2022-11-25T13:30:36;7.70;96.60
35463;DHT22;21578;47.892;9.970;2022-11-25T13:35:33;7.60;96.60
35463;DHT22;21578;47.892;9.970;2022-11-25T13:40:33;7.60;96.60
35463;DHT22;21578;47.892;9.970;2022-11-25T13:45:25;7.50;96.60
35463;DHT22;21578;47.892;9.970;2022-11-25T13:50:20;7.50;96.60
35463;DHT22;21578;47.892;9.970;2022-11-25T13:55:25;7.50;96.60
35463;DHT22;21578;47.892;9.970;2022-11-25T14:00:44;7.40;96.60
35463;DHT22;21578;47.892;9.970;2022-11-25T14:05:44;7.30;96.60
35463;DHT22;21578;47.892;9.970;2022-11-25T14:10:43;7.20;96.60
35463;DHT22;21578;47.892;9.970;2022-11-25T14:15:46;7.10;96.60
35463;DHT22;21578;47.892;9.970;2022-11-25T14:20:45;7.10;96.60
35463;DHT22;21578;47.892;9.970;2022-11-25T14:25:45;7.10;96.60
35463;DHT22;21578;47.892;9.970;2022-11-25T14:30:35;7.00;96.60
35463;DHT22;21578;47.892;9.970;2022-11-25T14:35:35;7.00;96.60
35463;DHT22;21578;47.892;9.970;2022-11-25T14:40:26;6.90;96.60
35463;DHT22;21578;47.892;9.970;2022-11-25T14:45:23;6.90;96.60
35463;DHT22;21578;47.892;9.970;2022-11-25T14:50:12;6.80;96.60
35463;DHT22;21578;47.892;9.970;2022-11-25T14:55:05;6.80;96.60
35463;DHT22;21578;47.892;9.970;2022-11-25T14:59:55;6.70;96.60
35463;DHT22;21578;47.892;9.970;2022-11-25T15:04:43;6.60;96.60
35463;DHT22;21578;47.892;9.970;2022-11-25T15:09:35;6.60;96.60
35463;DHT22;21578;47.892;9.970;2022-11-25T15:14:26;6.60;96.60
35463;DHT22;21578;47.892;9.970;2022-11-25T15:19:16;6.50;96.60
35463;DHT22;21578;47.892;9.970;2022-11-25T15:24:04;6.50;96.60
35463;DHT22;21578;47.892;9.970;2022-11-25T15:28:56;6.40;96.60
35463;DHT22;21578;47.892;9.970;2022-11-25T15:33:44;6.40;96.60
35463;DHT22;21578;47.892;9.970;2022-11-25T15:38:35;6.30;96.60
35463;DHT22;21578;47.892;9.970;2022-11-25T15:43:25;6.30;96.60
35463;DHT22;21578;47.892;9.970;2022-11-25T15:48:16;6.30;96.60
35463;DHT22;21578;47.892;9.970;2022-11-25T15:53:22;6.30;96.60
35463;DHT22;21578;47.892;9.970;2022-11-25T15:58:14;6.30;96.60
35463;DHT22;21578;47.892;9.970;2022-11-25T16:03:15;6.20;96.60
35463;DHT22;21578;47.892;9.970;2022-11-25T16:08:35;6.30;96.60
35463;DHT22;21578;47.892;9.970;2022-11-25T16:13:30;6.30;96.60
35463;DHT22;21578;47.892;9.970;2022-11-25T16:18:19;6.30;96.60
35463;DHT22;21578;47.892;9.970;2022-11-25T16:23:08;6.20;96.60
35463;DHT22;21578;47.892;9.970;2022-11-25T16:27:57;6.20;96.60
35463;DHT22;21578;47.892;9.970;2022-11-25T16:32:45;6.30;96.60
35463;DHT22;21578;47.892;9.970;2022-11-25T16:37:32;6.20;96.60
35463;DHT22;21578;47.892;9.970;2022-11-25T16:42:20;6.20;96.60
35463;DHT22;21578;47.892;9.970;2022-11-25T16:47:09;6.20;96.60
35463;DHT22;21578;47.892;9.970;2022-11-25T16:51:57;6.30;96.60
35463;DHT22;21578;47.892;9.970;2022-11-25T16:56:46;6.30;96.60
35463;DHT22;21578;47.892;9.970;2022-11-25T17:01:34;6.20;96.60
35463;DHT22;21578;47.892;9.970;2022-11-25T17:06:25;6.30;96.60
35463;DHT22;21578;47.892;9.970;2022-11-25T17:11:22;6.30;96.60
35463;DHT22;21578;47.892;9.970;2022-11-25T17:16:15;6.20;96.60
35463;DHT22;21578;47.892;9.970;2022-11-25T17:21:03;6.20;96.60
35463;DHT22;21578;47.892;9.970;2022-11-25T17:25:52;6.20;96.60
35463;DHT22;21578;47.892;9.970;2022-11-25T17:30:41;6.20;96.60
35463;DHT22;21578;47.892;9.970;2022-11-25T17:35:28;6.20;96.60
35463;DHT22;21578;47.892;9.970;2022-11-25T17:40:16;6.10;96.60
35463;DHT22;21578;47.892;9.970;2022-11-25T17:45:10;6.10;96.60
35463;DHT22;21578;47.892;9.970;2022-11-25T17:49:58;6.10;96.60
35463;DHT22;21578;47.892;9.970;2022-11-25T17:54:45;6.10;96.60
35463;DHT22;21578;47.892;9.970;2022-11-25T17:59:34;6.10;96.60
35463;DHT22;21578;47.892;9.970;2022-11-25T18:04:24;6.00;96.60
35463;DHT22;21578;47.892;9.970;2022-11-25T18:09:11;5.90;96.60
35463;DHT22;21578;47.892;9.970;2022-11-25T18:13:58;5.80;96.60
35463;DHT22;21578;47.892;9.970;2022-11-25T18:18:45;5.90;96.60
35463;DHT22;21578;47.892;9.970;2022-11-25T18:23:34;5.80;96.60
35463;DHT22;21578;47.892;9.970;2022-11-25T18:28:23;5.60;96.60
35463;DHT22;21578;47.892;9.970;2022-11-25T18:33:11;5.50;96.60
35463;DHT22;21578;47.892;9.970;2022-11-25T18:37:59;5.40;96.60
35463;DHT22;21578;47.892;9.970;2022-11-25T18:42:50;5.30;96.60
35463;DHT22;21578;47.892;9.970;2022-11-25T18:47:39;5.20;96.60
35463;DHT22;21578;47.892;9.970;2022-11-25T18:52:25;5.10;96.60
35463;DHT22;21578;47.892;9.970;2022-11-25T18:57:13;5.10;96.60
35463;DHT22;21578;47.892;9.970;2022-11-25T19:02:07;5.00;96.60
35463;DHT22;21578;47.892;9.970;2022-11-25T19:12:17;5.00;96.60
35463;DHT22;21578;47.892;9.970;2022-11-25T19:17:13;4.90;96.60
35463;DHT22;21578;47.892;9.970;2022-11-25T19:22:00;4.90;96.60
35463;DHT22;21578;47.892;9.970;2022-11-25T19:26:48;4.90;96.60
35463;DHT22;21578;47.892;9.970;2022-11-25T19:31:36;4.90;96.60
35463;DHT22;21578;47.892;9.970;2022-11-25T19:36:26;4.90;96.60
35463;DHT22;21578;47.892;9.970;2022-11-25T19:41:15;4.90;96.60
35463;DHT22;21578;47.892;9.970;2022-11-25T19:46:03;5.00;96.60
35463;DHT22;21578;47.892;9.970;2022-11-25T19:50:50;5.10;96.60
35463;DHT22;21578;47.892;9.970;2022-11-25T19:55:45;5.20;96.60
35463;DHT22;21578;47.892;9.970;2022-11-25T20:00:33;5.20;96.60
35463;DHT22;21578;47.892;9.970;2022-11-25T20:05:22;5.20;96.60
35463;DHT22;21578;47.892;9.970;2022-11-25T20:10:16;5.20;96.60
35463;DHT22;21578;47.892;9.970;2022-11-25T20:15:06;5.30;96.60
35463;DHT22;21578;47.892;9.970;2022-11-25T20:19:55;5.30;96.60
35463;DHT22;21578;47.892;9.970;2022-11-25T20:24:44;5.30;96.60
35463;DHT22;21578;47.892;9.970;2022-11-25T20:29:31;5.30;96.60
35463;DHT22;21578;47.892;9.970;2022-11-25T20:34:20;5.30;96.60
35463;DHT22;21578;47.892;9.970;2022-11-25T20:39:14;5.30;96.60
35463;DHT22;21578;47.892;9.970;2022-11-25T20:44:02;5.30;96.60
35463;DHT22;21578;47.892;9.970;2022-11-25T20:48:52;5.30;96.60
35463;DHT22;21578;47.892;9.970;2022-11-25T20:53:44;5.30;96.60
35463;DHT22;21578;47.892;9.970;2022-11-25T20:58:31;5.30;96.60
35463;DHT22;21578;47.892;9.970;2022-11-25T21:03:19;5.30;96.60
35463;DHT22;21578;47.892;9.970;2022-11-25T21:08:11;5.30;96.60
35463;DHT22;21578;47.892;9.970;2022-11-25T21:13:07;5.30;96.60
35463;DHT22;21578;47.892;9.970;2022-11-25T21:17:55;5.30;96.60
35463;DHT22;21578;47.892;9.970;2022-11-25T21:22:46;5.30;96.60
35463;DHT22;21578;47.892;9.970;2022-11-25T21:27:33;5.30;96.60
35463;DHT22;21578;47.892;9.970;2022-11-25T21:32:24;5.30;96.60
35463;DHT22;21578;47.892;9.970;2022-11-25T21:37:11;5.30;96.60
35463;DHT22;21578;47.892;9.970;2022-11-25T21:42:02;5.30;96.60
35463;DHT22;21578;47.892;9.970;2022-11-25T21:46:50;5.20;96.60
35463;DHT22;21578;47.892;9.970;2022-11-25T21:51:39;5.20;96.60
35463;DHT22;21578;47.892;9.970;2022-11-25T21:56:28;5.10;96.60
35463;DHT22;21578;47.892;9.970;2022-11-25T22:01:17;5.10;96.60
35463;DHT22;21578;47.892;9.970;2022-11-25T22:06:09;5.10;96.60
35463;DHT22;21578;47.892;9.970;2022-11-25T22:10:59;5.10;96.60
35463;DHT22;21578;47.892;9.970;2022-11-25T22:15:48;5.10;96.60
35463;DHT22;21578;47.892;9.970;2022-11-25T22:20:37;5.10;96.60
35463;DHT22;21578;47.892;9.970;2022-11-25T22:25:28;5.20;96.60
35463;DHT22;21578;47.892;9.970;2022-11-25T22:30:19;5.20;96.60
35463;DHT22;21578;47.892;9.970;2022-11-25T22:35:13;5.20;96.60
35463;DHT22;21578;47.892;9.970;2022-11-25T22:40:01;5.20;96.60
35463;DHT22;21578;47.892;9.970;2022-11-25T22:44:48;5.20;96.60
35463;DHT22;21578;47.892;9.970;2022-11-25T22:49:41;5.30;96.60
35463;DHT22;21578;47.892;9.970;2022-11-25T22:54:28;5.40;96.60
35463;DHT22;21578;47.892;9.970;2022-11-25T22:59:15;5.30;96.60
35463;DHT22;21578;47.892;9.970;2022-11-25T23:04:03;5.20;96.60
35463;DHT22;21578;47.892;9.970;2022-11-25T23:08:52;5.10;96.60
35463;DHT22;21578;47.892;9.970;2022-11-25T23:13:39;5.00;96.60
35463;DHT22;21578;47.892;9.970;2022-11-25T23:18:29;4.90;96.60
35463;DHT22;21578;47.892;9.970;2022-11-25T23:23:19;4.90;96.60
35463;DHT22;21578;47.892;9.970;2022-11-25T23:28:08;4.90;96.60
35463;DHT22;21578;47.892;9.970;2022-11-25T23:32:55;4.90;96.60
35463;DHT22;21578;47.892;9.970;2022-11-25T23:37:43;4.90;96.60
35463;DHT22;21578;47.892;9.970;2022-11-25T23:42:33;5.00;96.60
35463;DHT22;21578;47.892;9.970;2022-11-25T23:47:22;5.20;96.60
35463;DHT22;21578;47.892;9.970;2022-11-25T23:52:13;5.20;96.60
35463;DHT22;21578;47.892;9.970;2022-11-25T23:57:02;5.00;96.60
